Time;durP1;ratioP1;P1;durP2;ratioP2;P2;SDS_P1;SDS_P2;PMS_P1;PMS_P2;Temp;Humidity;BMP_temperature;BMP_pressure;BME280_temperature;BME280_humidity;BME280_pressure;Samples;Min_cycle;Max_cycle;Signal;HPM_P1;HPM_P2
2022/06/25 00:01:59;;;;;;;10.90;8.95;;;19.50;99.90;;;;;;5032774;28;20040;-84
2022/06/25 00:07:09;;;;;;;11.50;9.23;;;19.40;99.90;;;;;;5058881;28;20415;-84
2022/06/25 00:09:34;;;;;;;9.95;8.48;;;19.40;99.90;;;;;;5059240;28;20048;-84
2022/06/25 00:14:44;;;;;;;10.43;9.00;;;19.40;99.90;;;;;;5058794;28;20056;-84
2022/06/25 00:17:09;;;;;;;11.52;9.32;;;19.40;99.90;;;;;;5059643;28;20036;-84
2022/06/25 00:19:35;;;;;;;10.48;8.55;;;19.40;99.90;;;;;;5058766;28;20093;-84
2022/06/25 00:22:01;;;;;;;11.38;10.18;;;19.40;99.90;;;;;;5057260;28;20079;-84
2022/06/25 00:24:27;;;;;;;11.07;9.40;;;19.30;99.90;;;;;;5059187;28;20036;-84
2022/06/25 00:26:52;;;;;;;12.20;9.18;;;19.30;99.90;;;;;;5042121;28;20036;-84
2022/06/25 00:29:18;;;;;;;12.55;11.10;;;19.30;99.90;;;;;;5058873;28;20032;-84
2022/06/25 00:31:44;;;;;;;12.30;10.85;;;19.20;99.90;;;;;;5058140;28;20037;-84
2022/06/25 00:34:09;;;;;;;12.90;9.88;;;19.20;99.90;;;;;;5041927;28;20044;-84
2022/06/25 00:36:35;;;;;;;12.45;10.77;;;19.20;99.90;;;;;;5059124;28;20040;-84
2022/06/25 00:39:00;;;;;;;12.25;10.27;;;19.20;99.90;;;;;;5058381;28;20043;-84
2022/06/25 00:41:27;;;;;;;14.93;10.90;;;19.10;99.90;;;;;;5042233;28;20435;-84
2022/06/25 00:43:53;;;;;;;12.70;11.40;;;19.10;99.90;;;;;;5057967;28;20077;-84
2022/06/25 00:46:18;;;;;;;12.93;11.55;;;19.10;99.90;;;;;;5059348;28;20041;-84
2022/06/25 00:48:44;;;;;;;13.73;11.65;;;19.10;99.90;;;;;;5059796;28;20492;-84
2022/06/25 00:51:12;;;;;;;13.27;11.80;;;19.10;99.90;;;;;;5057725;28;20541;-84
2022/06/25 00:53:41;;;;;;;13.45;11.95;;;19.00;99.90;;;;;;5042070;28;20044;-84
2022/06/25 00:56:09;;;;;;;13.75;11.50;;;19.00;99.90;;;;;;5058623;28;20040;-84
2022/06/25 00:58:38;;;;;;;14.57;13.07;;;19.00;99.90;;;;;;5058875;28;20048;-84
2022/06/25 01:01:08;;;;;;;13.25;11.95;;;19.00;99.90;;;;;;5058506;28;20044;-83
2022/06/25 01:03:34;;;;;;;14.27;12.80;;;19.00;99.90;;;;;;5057858;28;20033;-84
2022/06/25 01:06:01;;;;;;;14.02;12.63;;;19.00;99.90;;;;;;5042497;28;20067;-84
2022/06/25 01:08:26;;;;;;;14.77;13.38;;;19.00;99.90;;;;;;5058632;28;20494;-83
2022/06/25 01:10:52;;;;;;;14.75;13.25;;;18.90;99.90;;;;;;5058263;28;20039;-85
2022/06/25 01:13:21;;;;;;;15.82;14.32;;;18.90;99.90;;;;;;5057548;28;20037;-82
2022/06/25 01:15:47;;;;;;;15.40;13.90;;;18.90;99.90;;;;;;5040435;28;20046;-82
2022/06/25 01:18:13;;;;;;;14.98;13.43;;;18.90;99.90;;;;;;5055127;28;20032;-82
2022/06/25 01:20:38;;;;;;;15.15;13.63;;;18.90;99.90;;;;;;5038140;28;20579;-82
2022/06/25 01:23:04;;;;;;;15.85;14.18;;;18.90;99.90;;;;;;5054634;28;20403;-82
2022/06/25 01:25:34;;;;;;;15.13;13.73;;;18.80;99.90;;;;;;5039206;28;20394;-82
2022/06/25 01:28:01;;;;;;;14.63;13.10;;;18.90;99.90;;;;;;5037479;28;20064;-82
2022/06/25 01:30:26;;;;;;;15.65;14.23;;;18.80;99.90;;;;;;5038383;28;20553;-83
2022/06/25 01:32:52;;;;;;;16.40;14.90;;;18.80;99.90;;;;;;5053976;28;20151;-83
2022/06/25 01:35:18;;;;;;;15.80;14.25;;;18.80;99.90;;;;;;5054774;28;20567;-83
2022/06/25 01:37:44;;;;;;;15.73;14.20;;;18.80;99.90;;;;;;5038730;28;20048;-83
2022/06/25 01:40:10;;;;;;;16.23;14.52;;;18.80;99.90;;;;;;5046351;28;20424;-83
2022/06/25 01:45:20;;;;;;;15.15;13.73;;;18.70;99.90;;;;;;5054449;28;20041;-83
2022/06/25 01:47:46;;;;;;;15.40;13.80;;;18.70;99.90;;;;;;5055480;28;20033;-83
2022/06/25 01:50:12;;;;;;;14.80;13.35;;;18.70;99.90;;;;;;5038471;28;20079;-83
2022/06/25 01:52:38;;;;;;;14.10;12.80;;;18.70;99.90;;;;;;5037233;28;20068;-82
2022/06/25 01:55:04;;;;;;;14.43;13.05;;;18.70;99.90;;;;;;5055007;28;20566;-82
2022/06/25 01:57:30;;;;;;;14.70;13.30;;;18.70;99.90;;;;;;5054564;28;20475;-83
2022/06/25 01:59:55;;;;;;;15.00;13.50;;;18.70;99.90;;;;;;5054368;28;20066;-83
2022/06/25 02:02:21;;;;;;;15.95;14.50;;;18.60;99.90;;;;;;5054732;28;20037;-83
2022/06/25 02:04:46;;;;;;;15.43;13.93;;;18.60;99.90;;;;;;5037097;28;20040;-83
2022/06/25 02:07:12;;;;;;;16.10;14.60;;;18.60;99.90;;;;;;5038590;28;20052;-83
2022/06/25 02:09:38;;;;;;;15.35;13.95;;;18.60;99.90;;;;;;5037245;28;20033;-83
2022/06/25 02:12:04;;;;;;;15.18;13.68;;;18.60;99.90;;;;;;5053982;28;20037;-83
2022/06/25 02:14:30;;;;;;;16.05;14.38;;;18.50;99.90;;;;;;5054028;28;20059;-83
2022/06/25 02:16:55;;;;;;;17.90;16.20;;;18.50;99.90;;;;;;5037790;28;20040;-83
2022/06/25 02:19:21;;;;;;;16.48;14.82;;;18.50;99.90;;;;;;5037397;28;20076;-83
2022/06/25 02:21:47;;;;;;;14.70;13.38;;;18.50;99.90;;;;;;5037456;28;20465;-83
2022/06/25 02:24:12;;;;;;;15.63;14.23;;;18.50;99.90;;;;;;5054125;28;20036;-83
2022/06/25 02:26:38;;;;;;;15.45;14.00;;;18.50;99.90;;;;;;5037554;28;20037;-83
2022/06/25 02:29:03;;;;;;;17.48;15.68;;;18.40;99.90;;;;;;5037086;28;20124;-83
2022/06/25 02:31:30;;;;;;;16.77;15.27;;;18.40;99.90;;;;;;5053983;28;20068;-83
2022/06/25 02:33:55;;;;;;;17.00;15.38;;;18.40;99.90;;;;;;5052755;28;20119;-83
2022/06/25 02:36:21;;;;;;;15.32;13.90;;;18.40;99.90;;;;;;5054195;28;20170;-82
2022/06/25 02:38:46;;;;;;;16.48;14.95;;;18.40;99.90;;;;;;5037136;28;20040;-83
2022/06/25 02:41:12;;;;;;;15.88;14.38;;;18.30;99.90;;;;;;5038003;28;20398;-83
2022/06/25 02:43:38;;;;;;;15.70;14.25;;;18.30;99.90;;;;;;5052338;28;20081;-83
2022/06/25 02:46:03;;;;;;;16.40;14.73;;;18.30;99.90;;;;;;5037425;28;20048;-83
2022/06/25 02:48:29;;;;;;;16.58;14.98;;;18.30;99.90;;;;;;5054333;28;20048;-83
2022/06/25 02:50:55;;;;;;;15.35;13.82;;;18.30;99.90;;;;;;5035894;28;20250;-83
2022/06/25 02:53:20;;;;;;;16.45;14.85;;;18.30;99.90;;;;;;5053394;28;20044;-83
2022/06/25 03:01:14;;;;;;;14.70;12.73;;;18.20;99.90;;;;;;5053025;28;20072;-83
2022/06/25 03:03:40;;;;;;;13.70;12.30;;;18.20;99.90;;;;;;5036357;28;20075;-83
2022/06/25 03:06:06;;;;;;;14.32;12.82;;;18.10;99.90;;;;;;5053265;28;20498;-83
2022/06/25 03:08:31;;;;;;;13.13;11.82;;;18.20;99.90;;;;;;5053153;28;20045;-83
2022/06/25 03:10:57;;;;;;;13.07;11.70;;;18.20;99.90;;;;;;5053321;28;20131;-82
2022/06/25 03:13:22;;;;;;;13.35;11.75;;;18.10;99.90;;;;;;5052184;28;20048;-83
2022/06/25 03:15:48;;;;;;;13.95;12.35;;;18.10;99.90;;;;;;5053014;28;20108;-83
2022/06/25 03:18:14;;;;;;;12.35;11.05;;;18.10;99.90;;;;;;5053442;28;20033;-83
2022/06/25 03:20:39;;;;;;;13.25;11.15;;;18.10;99.90;;;;;;5036298;28;20032;-83
2022/06/25 03:23:05;;;;;;;14.02;12.63;;;18.10;99.90;;;;;;5052776;28;20040;-83
2022/06/25 03:25:31;;;;;;;14.88;11.77;;;18.10;99.90;;;;;;5052996;28;20043;-83
2022/06/25 03:27:57;;;;;;;13.60;12.20;;;18.10;99.90;;;;;;5036563;28;20039;-83
2022/06/25 03:30:23;;;;;;;14.55;11.88;;;18.10;99.90;;;;;;5052568;28;20111;-83
2022/06/25 03:32:49;;;;;;;14.65;11.57;;;18.00;99.90;;;;;;5035806;28;20120;-83
2022/06/25 03:35:14;;;;;;;14.82;13.18;;;18.00;99.90;;;;;;5052643;28;20123;-83
2022/06/25 03:37:40;;;;;;;13.32;11.63;;;18.00;99.90;;;;;;5036539;28;20036;-82
2022/06/25 03:40:06;;;;;;;14.73;13.15;;;18.00;99.90;;;;;;5035214;28;20558;-83
2022/06/25 03:42:31;;;;;;;14.60;12.05;;;18.00;99.90;;;;;;5052617;28;20040;-83
2022/06/25 03:44:57;;;;;;;12.30;10.80;;;18.00;99.90;;;;;;5052639;28;20032;-83
2022/06/25 03:47:23;;;;;;;13.90;10.88;;;18.00;99.90;;;;;;5060396;28;20060;-83
2022/06/25 03:49:48;;;;;;;12.75;11.45;;;18.00;99.90;;;;;;5057626;28;20044;-83
2022/06/25 03:52:15;;;;;;;13.25;10.13;;;18.00;99.90;;;;;;5041493;28;20631;-83
2022/06/25 03:54:40;;;;;;;12.60;10.57;;;18.00;99.90;;;;;;5043613;28;20042;-83
2022/06/25 03:57:06;;;;;;;12.30;10.80;;;18.00;99.90;;;;;;5041487;28;20036;-83
2022/06/25 03:59:32;;;;;;;12.60;10.52;;;18.00;99.90;;;;;;5065421;28;20127;-83
2022/06/25 04:01:58;;;;;;;11.63;9.30;;;18.00;99.90;;;;;;5045489;28;20478;-83
2022/06/25 04:04:23;;;;;;;11.85;9.52;;;18.00;99.90;;;;;;5058829;28;20082;-82
2022/06/25 04:06:49;;;;;;;11.57;9.68;;;18.10;99.90;;;;;;5054329;28;20485;-83
2022/06/25 04:09:14;;;;;;;11.15;9.85;;;18.10;99.90;;;;;;5058887;28;20082;-82
2022/06/25 04:11:40;;;;;;;17.65;11.68;;;18.10;99.90;;;;;;5052356;28;20078;-82
2022/06/25 04:14:06;;;;;;;10.82;9.50;;;18.10;99.90;;;;;;5051854;28;20074;-83
2022/06/25 04:16:33;;;;;;;11.35;10.15;;;18.10;99.90;;;;;;5052308;28;20040;-83
2022/06/25 04:18:59;;;;;;;10.48;8.80;;;18.10;99.90;;;;;;5052677;28;20473;-83
2022/06/25 04:21:25;;;;;;;13.30;9.40;;;18.10;99.90;;;;;;5034490;28;20040;-83
2022/06/25 04:23:50;;;;;;;11.65;9.63;;;18.20;99.90;;;;;;5051950;28;20414;-83
2022/06/25 04:26:16;;;;;;;12.05;9.45;;;18.20;99.90;;;;;;5035803;28;20043;-82
2022/06/25 04:31:26;;;;;;;11.95;9.45;;;18.20;99.90;;;;;;5052673;28;20051;-83
2022/06/25 04:33:51;;;;;;;13.68;9.60;;;18.30;99.90;;;;;;5034375;28;20410;-83
2022/06/25 04:36:17;;;;;;;11.32;8.75;;;18.30;99.90;;;;;;5052532;28;20044;-83
2022/06/25 04:38:43;;;;;;;11.20;8.90;;;18.30;99.90;;;;;;5052813;28;20414;-83
2022/06/25 04:41:09;;;;;;;11.70;8.65;;;18.30;99.90;;;;;;5034963;28;20494;-83
2022/06/25 04:43:34;;;;;;;11.73;8.05;;;18.40;99.90;;;;;;5051785;28;20048;-83
2022/06/25 04:46:00;;;;;;;10.48;7.57;;;18.40;99.90;;;;;;5052115;28;20040;-82
2022/06/25 04:48:25;;;;;;;12.00;7.55;;;18.30;99.90;;;;;;5036016;28;20417;-82
2022/06/25 04:50:51;;;;;;;9.60;7.53;;;18.40;99.90;;;;;;5036461;28;20170;-82
2022/06/25 04:53:17;;;;;;;11.18;7.35;;;18.40;99.90;;;;;;5055231;28;20549;-82
2022/06/25 04:55:42;;;;;;;11.65;7.82;;;18.40;99.90;;;;;;5039251;28;20379;-83
2022/06/25 04:58:09;;;;;;;12.15;7.13;;;18.40;99.90;;;;;;5038970;28;20037;-83
2022/06/25 05:00:35;;;;;;;12.32;7.93;;;18.40;99.90;;;;;;5039164;28;20040;-82
2022/06/25 05:03:00;;;;;;;10.30;7.93;;;18.40;99.90;;;;;;5055125;28;20044;-83
2022/06/25 05:05:26;;;;;;;10.82;7.13;;;18.40;99.90;;;;;;5054825;28;20028;-83
2022/06/25 05:07:51;;;;;;;10.65;8.00;;;18.40;99.90;;;;;;5056124;28;20094;-83
2022/06/25 05:10:17;;;;;;;10.25;7.35;;;18.40;99.90;;;;;;5054658;28;20040;-82
2022/06/25 05:15:27;;;;;;;12.13;7.45;;;18.50;99.90;;;;;;5055229;28;20037;-83
2022/06/25 05:17:52;;;;;;;10.88;7.82;;;18.50;99.90;;;;;;5055265;28;20493;-83
2022/06/25 05:20:18;;;;;;;10.98;7.90;;;18.60;99.90;;;;;;5055281;28;20072;-83
2022/06/25 05:22:43;;;;;;;10.38;6.97;;;18.60;99.90;;;;;;5038341;28;20041;-83
2022/06/25 05:25:09;;;;;;;10.90;7.25;;;18.60;99.90;;;;;;5037972;28;20468;-83
2022/06/25 05:27:35;;;;;;;9.63;7.68;;;18.60;99.90;;;;;;5056096;28;20098;-83
2022/06/25 05:30:00;;;;;;;13.90;7.40;;;18.60;99.90;;;;;;5054981;28;20044;-83
2022/06/25 05:32:26;;;;;;;10.80;7.25;;;18.70;99.90;;;;;;5054886;28;20041;-83
2022/06/25 05:34:52;;;;;;;9.70;6.82;;;18.70;99.90;;;;;;5054569;28;20109;-83
2022/06/25 05:37:17;;;;;;;11.45;6.78;;;18.70;99.90;;;;;;5055304;28;20116;-83
2022/06/25 05:39:43;;;;;;;11.02;7.15;;;18.80;99.90;;;;;;5038206;28;20048;-83
2022/06/25 05:42:08;;;;;;;12.00;6.75;;;18.80;99.90;;;;;;5046768;28;20036;-83
2022/06/25 05:44:34;;;;;;;11.18;7.22;;;18.80;99.90;;;;;;5038023;28;20123;-83
2022/06/25 05:47:00;;;;;;;10.07;6.45;;;18.90;99.90;;;;;;5054485;28;20044;-83
2022/06/25 05:49:25;;;;;;;10.77;7.07;;;18.90;99.90;;;;;;5038191;28;20222;-83
2022/06/25 05:51:51;;;;;;;10.40;6.72;;;19.00;99.90;;;;;;5054526;28;20036;-83
2022/06/25 05:54:16;;;;;;;11.90;7.10;;;19.00;99.90;;;;;;5037219;28;20408;-83
2022/06/25 05:56:42;;;;;;;10.32;6.50;;;19.10;99.90;;;;;;5038168;28;20048;-83
2022/06/25 05:59:08;;;;;;;9.35;6.30;;;19.10;99.90;;;;;;5037625;28;20463;-83
2022/06/25 06:01:34;;;;;;;12.30;6.20;;;19.20;99.90;;;;;;5054766;28;20571;-84
2022/06/25 06:03:59;;;;;;;9.90;6.47;;;19.20;99.90;;;;;;5053791;28;20072;-84
2022/06/25 06:06:25;;;;;;;9.00;5.88;;;19.30;99.90;;;;;;5054370;28;20406;-84
2022/06/25 06:08:51;;;;;;;9.38;5.10;;;19.40;99.90;;;;;;5054878;28;20048;-84
2022/06/25 06:11:16;;;;;;;10.60;5.70;;;19.40;99.90;;;;;;5036995;28;20064;-84
2022/06/25 06:13:42;;;;;;;10.00;5.78;;;19.50;99.90;;;;;;5037703;28;20101;-84
2022/06/25 06:16:07;;;;;;;9.77;5.80;;;19.50;99.90;;;;;;5053770;28;20093;-84
2022/06/25 06:18:33;;;;;;;8.85;5.25;;;19.60;99.90;;;;;;5054853;28;20036;-84
2022/06/25 06:20:59;;;;;;;9.00;5.05;;;19.60;99.90;;;;;;5054165;28;20037;-84
2022/06/25 06:23:24;;;;;;;9.38;5.20;;;19.60;99.90;;;;;;5054005;28;20456;-84
2022/06/25 06:25:50;;;;;;;10.82;5.60;;;19.70;99.90;;;;;;5054517;28;20033;-84
2022/06/25 06:28:16;;;;;;;9.52;5.00;;;19.80;99.90;;;;;;5054546;28;20082;-84
2022/06/25 06:30:42;;;;;;;9.82;4.75;;;19.80;99.90;;;;;;5054310;28;20052;-84
2022/06/25 06:33:08;;;;;;;8.77;4.60;;;19.90;99.90;;;;;;5053912;28;20086;-85
2022/06/25 06:35:33;;;;;;;9.07;4.40;;;20.00;99.90;;;;;;5036300;28;20032;-84
2022/06/25 06:37:59;;;;;;;9.10;4.55;;;20.00;99.90;;;;;;5054409;28;20055;-84
2022/06/25 06:40:25;;;;;;;7.72;4.60;;;20.00;99.90;;;;;;5043672;28;20045;-84
2022/06/25 06:42:50;;;;;;;11.98;4.70;;;20.10;99.90;;;;;;5051466;28;20085;-84
2022/06/25 06:45:16;;;;;;;8.80;4.40;;;20.20;99.90;;;;;;5053681;28;20658;-83
2022/06/25 06:47:42;;;;;;;9.48;4.20;;;20.20;99.90;;;;;;5049046;28;20048;-84
2022/06/25 06:50:10;;;;;;;10.55;4.28;;;20.20;99.90;;;;;;5062682;28;20817;-83
2022/06/25 06:52:36;;;;;;;8.70;3.60;;;20.30;99.90;;;;;;5066276;28;20044;-84
2022/06/25 06:55:04;;;;;;;9.10;4.10;;;20.40;99.90;;;;;;5072078;28;20036;-84
2022/06/25 06:57:30;;;;;;;9.27;3.78;;;20.40;99.90;;;;;;5067810;28;20650;-84
2022/06/25 06:59:58;;;;;;;7.30;3.58;;;20.40;99.90;;;;;;5065485;28;20040;-84
2022/06/25 07:02:25;;;;;;;7.97;3.78;;;20.50;99.90;;;;;;5068401;28;20434;-84
2022/06/25 07:04:52;;;;;;;8.73;3.50;;;20.50;99.90;;;;;;5062341;28;20043;-85
2022/06/25 07:07:18;;;;;;;9.15;3.53;;;20.50;99.90;;;;;;5059940;28;20046;-84
2022/06/25 07:09:43;;;;;;;8.45;3.78;;;20.60;99.90;;;;;;5057310;28;20044;-84
2022/06/25 07:12:09;;;;;;;8.07;3.40;;;20.70;99.90;;;;;;5045764;28;20123;-85
2022/06/25 07:14:35;;;;;;;8.10;3.60;;;20.70;99.90;;;;;;5035183;28;20496;-84
2022/06/25 07:17:00;;;;;;;9.75;3.60;;;20.80;99.90;;;;;;5036050;28;20048;-85
2022/06/25 07:19:26;;;;;;;10.75;3.50;;;20.80;99.90;;;;;;5053131;28;20413;-84
2022/06/25 07:21:52;;;;;;;8.90;3.25;;;20.90;99.90;;;;;;5053678;28;20569;-85
2022/06/25 07:24:18;;;;;;;9.38;3.50;;;20.90;99.90;;;;;;5052415;28;20044;-84
2022/06/25 07:26:43;;;;;;;8.13;3.50;;;20.90;99.90;;;;;;5053159;28;20028;-85
2022/06/25 07:29:09;;;;;;;9.02;3.70;;;21.00;99.90;;;;;;5036554;28;20032;-84
2022/06/25 07:31:35;;;;;;;8.52;3.60;;;21.00;99.90;;;;;;5052686;28;20566;-84
2022/06/25 07:34:00;;;;;;;8.30;3.60;;;21.10;99.90;;;;;;5053055;28;20466;-84
2022/06/25 07:36:26;;;;;;;8.18;3.50;;;21.10;99.90;;;;;;5052075;28;20036;-84
2022/06/25 07:38:52;;;;;;;7.90;4.18;;;21.20;99.90;;;;;;5036399;28;20048;-84
2022/06/25 07:41:18;;;;;;;7.97;3.78;;;21.30;99.90;;;;;;5052613;28;20406;-84
2022/06/25 07:43:43;;;;;;;9.15;3.70;;;21.30;99.90;;;;;;5036033;28;20481;-84
2022/06/25 07:46:09;;;;;;;9.82;3.95;;;21.30;99.90;;;;;;5035864;28;20032;-84
2022/06/25 07:48:35;;;;;;;9.50;4.00;;;21.40;99.90;;;;;;5052592;28;20040;-84
2022/06/25 07:53:45;;;;;;;9.70;3.83;;;21.50;99.90;;;;;;5069415;28;20045;-84
2022/06/25 07:56:11;;;;;;;7.80;3.90;;;21.60;99.90;;;;;;5062002;28;20032;-84
2022/06/25 07:58:36;;;;;;;8.32;4.07;;;21.60;99.90;;;;;;5057228;28;20120;-84
2022/06/25 08:01:02;;;;;;;8.50;4.03;;;21.70;99.90;;;;;;5051943;28;20048;-83
2022/06/25 08:03:28;;;;;;;8.82;4.00;;;21.70;99.90;;;;;;5053342;28;20040;-84
2022/06/25 08:05:55;;;;;;;8.80;3.63;;;21.80;99.90;;;;;;5051666;28;20047;-84
2022/06/25 08:08:20;;;;;;;8.48;3.90;;;21.80;99.90;;;;;;5052575;28;20036;-84
2022/06/25 08:10:46;;;;;;;8.30;3.70;;;21.80;99.90;;;;;;5052536;28;20032;-84
2022/06/25 08:13:11;;;;;;;9.27;3.50;;;21.90;99.90;;;;;;5052352;28;20041;-84
2022/06/25 08:15:37;;;;;;;9.02;3.78;;;21.90;99.90;;;;;;5052219;28;20040;-84
2022/06/25 08:18:03;;;;;;;8.75;3.65;;;22.00;99.90;;;;;;5052611;28;20513;-84
2022/06/25 08:20:28;;;;;;;8.50;3.60;;;22.00;99.90;;;;;;5052073;28;20386;-84
2022/06/25 08:22:54;;;;;;;8.50;3.53;;;22.00;99.90;;;;;;5051666;28;20029;-84
2022/06/25 08:25:19;;;;;;;8.50;3.05;;;22.10;99.90;;;;;;5051951;28;20037;-84
2022/06/25 08:27:51;;;;;;;8.82;3.30;;;22.20;99.90;;;;;;5059311;28;20460;-84
2022/06/25 08:30:18;;;;;;;9.38;3.38;;;22.20;99.90;;;;;;5056306;28;20037;-84
2022/06/25 08:32:44;;;;;;;8.75;3.05;;;22.30;99.90;;;;;;5053776;28;20040;-84
2022/06/25 08:35:10;;;;;;;6.57;2.70;;;22.30;99.90;;;;;;5055357;28;20055;-84
2022/06/25 08:37:37;;;;;;;7.38;2.70;;;22.40;99.90;;;;;;5041876;28;20105;-84
2022/06/25 08:40:05;;;;;;;8.32;3.35;;;22.40;99.90;;;;;;5071076;28;20047;-84
2022/06/25 08:42:30;;;;;;;10.63;3.10;;;22.40;99.90;;;;;;5062258;28;20402;-85
2022/06/25 08:44:56;;;;;;;7.38;2.65;;;22.50;99.90;;;;;;5038423;28;20504;-84
2022/06/25 08:47:21;;;;;;;9.30;2.95;;;22.60;99.90;;;;;;5055923;28;20569;-85
2022/06/25 08:49:47;;;;;;;8.43;2.75;;;22.50;99.90;;;;;;5054800;28;20559;-85
2022/06/25 08:52:14;;;;;;;8.10;2.78;;;22.60;99.90;;;;;;5055210;28;20041;-85
2022/06/25 08:54:40;;;;;;;8.13;2.78;;;22.60;99.90;;;;;;5055253;28;20082;-85
2022/06/25 08:57:08;;;;;;;9.60;3.33;;;22.60;99.90;;;;;;5055196;28;20040;-85
2022/06/25 08:59:34;;;;;;;11.70;3.50;;;22.60;99.90;;;;;;5038528;28;20058;-85
2022/06/25 09:01:59;;;;;;;8.40;3.47;;;22.50;99.90;;;;;;5038609;28;20501;-85
2022/06/25 09:04:26;;;;;;;8.00;3.28;;;22.60;99.90;;;;;;5055829;28;20176;-85
2022/06/25 09:07:17;;;;;;;7.80;2.75;;;22.70;99.90;;;;;;5053896;28;20036;-85
2022/06/25 09:09:47;;;;;;;8.13;3.03;;;22.80;99.90;;;;;;5055463;28;20037;-85
2022/06/25 09:12:14;;;;;;;10.60;2.70;;;22.90;99.90;;;;;;5054979;28;20036;-85
2022/06/25 09:14:40;;;;;;;7.97;2.65;;;23.00;99.90;;;;;;5054885;28;20405;-85
2022/06/25 09:17:09;;;;;;;9.30;3.10;;;23.00;99.90;;;;;;5072731;28;20036;-85
2022/06/25 09:19:34;;;;;;;7.40;2.63;;;23.10;99.90;;;;;;5041717;28;20098;-85
2022/06/25 09:22:05;;;;;;;9.35;3.28;;;23.20;99.90;;;;;;5038465;28;20050;-85
2022/06/25 09:24:55;;;;;;;9.80;3.72;;;23.20;99.90;;;;;;5054438;28;20135;-85
2022/06/25 09:27:38;;;;;;;7.97;2.80;;;23.20;99.90;;;;;;5054947;28;20042;-85
2022/06/25 09:30:11;;;;;;;8.05;2.85;;;23.20;99.90;;;;;;5053718;28;20078;-85
2022/06/25 09:32:54;;;;;;;9.07;2.72;;;23.20;99.90;;;;;;5055285;28;20070;-85
2022/06/25 09:35:31;;;;;;;6.75;2.70;;;23.10;99.90;;;;;;5053908;28;20090;-85
2022/06/25 09:38:11;;;;;;;7.47;2.55;;;23.00;99.90;;;;;;5071118;28;20522;-85
2022/06/25 09:40:38;;;;;;;7.82;2.33;;;23.00;99.90;;;;;;5054556;28;20044;-85
2022/06/25 09:43:18;;;;;;;6.55;2.03;;;23.10;99.90;;;;;;5061259;28;20029;-85
2022/06/25 09:45:47;;;;;;;5.75;1.88;;;23.20;99.90;;;;;;5046375;28;20094;-85
2022/06/25 09:48:21;;;;;;;6.53;2.00;;;23.20;99.90;;;;;;5037717;28;20083;-85
2022/06/25 09:51:19;;;;;;;6.20;2.08;;;23.10;99.90;;;;;;5038171;28;20376;-85
2022/06/25 09:54:00;;;;;;;9.00;2.30;;;23.20;99.90;;;;;;5054372;28;20056;-85
2022/06/25 09:56:32;;;;;;;7.95;2.17;;;23.20;99.90;;;;;;5053543;28;20045;-84
2022/06/25 09:58:58;;;;;;;8.55;2.60;;;23.30;99.90;;;;;;5054364;28;20737;-85
2022/06/25 10:01:29;;;;;;;6.88;2.53;;;23.40;99.90;;;;;;5054855;28;20044;-85
2022/06/25 10:03:55;;;;;;;11.18;2.70;;;23.50;99.90;;;;;;5037983;28;20059;-85
2022/06/25 10:06:22;;;;;;;8.00;2.55;;;23.50;99.90;;;;;;5053603;28;20445;-85
2022/06/25 10:08:54;;;;;;;6.47;2.50;;;23.60;99.90;;;;;;5054070;28;20056;-85
2022/06/25 10:11:22;;;;;;;7.60;2.78;;;23.70;99.90;;;;;;5053914;28;20041;-85
2022/06/25 10:13:48;;;;;;;7.15;2.17;;;23.70;99.90;;;;;;5037369;28;20051;-85
2022/06/25 10:16:19;;;;;;;7.18;2.50;;;23.70;99.90;;;;;;5052968;28;20051;-85
2022/06/25 10:18:44;;;;;;;8.35;2.45;;;23.60;99.90;;;;;;5054401;28;20383;-85
2022/06/25 10:21:12;;;;;;;7.28;2.47;;;23.70;99.90;;;;;;5053362;28;20485;-85
2022/06/25 10:23:39;;;;;;;5.88;1.88;;;23.70;99.90;;;;;;5053996;28;20482;-85
2022/06/25 10:26:05;;;;;;;7.25;2.30;;;23.70;99.90;;;;;;5053437;28;20044;-85
2022/06/25 10:28:35;;;;;;;6.95;2.25;;;23.90;99.90;;;;;;5036619;28;20032;-84
2022/06/25 10:31:05;;;;;;;5.28;1.95;;;23.90;99.90;;;;;;5037495;28;20086;-85
2022/06/25 10:33:36;;;;;;;5.63;2.10;;;23.90;99.90;;;;;;5036597;28;20037;-85
2022/06/25 10:36:05;;;;;;;7.07;1.98;;;23.90;99.90;;;;;;5036487;28;20033;-85
2022/06/25 10:38:31;;;;;;;7.05;1.98;;;23.80;99.90;;;;;;5036601;28;20044;-84
2022/06/25 10:43:49;;;;;;;5.97;1.70;;;23.90;99.90;;;;;;5053186;28;20045;-85
2022/06/25 10:46:36;;;;;;;7.07;2.00;;;23.90;99.90;;;;;;5053200;28;20036;-84
2022/06/25 10:49:17;;;;;;;4.93;2.03;;;24.00;99.90;;;;;;5053344;28;20052;-85
2022/06/25 10:51:44;;;;;;;6.90;1.88;;;24.00;99.90;;;;;;5053080;28;20044;-85
2022/06/25 10:54:34;;;;;;;6.47;1.83;;;24.00;99.90;;;;;;5053708;28;20123;-85
2022/06/25 10:57:02;;;;;;;5.93;1.77;;;24.00;99.90;;;;;;5034481;28;20052;-85
2022/06/25 10:59:46;;;;;;;5.65;1.60;;;24.00;99.40;;;;;;5053156;28;20102;-84
2022/06/25 11:02:15;;;;;;;5.90;1.50;;;24.00;99.90;;;;;;5053271;28;20052;-84
2022/06/25 11:04:52;;;;;;;6.43;1.83;;;23.90;99.90;;;;;;5053399;28;20401;-84
2022/06/25 11:07:20;;;;;;;5.25;1.50;;;24.00;99.90;;;;;;5052656;28;20047;-84
2022/06/25 11:09:55;;;;;;;7.80;1.83;;;24.00;99.90;;;;;;5035897;28;20413;-84
2022/06/25 11:12:22;;;;;;;5.35;1.58;;;24.10;99.90;;;;;;5036295;28;20169;-84
2022/06/25 11:15:08;;;;;;;6.00;1.88;;;24.30;99.90;;;;;;5052252;28;20099;-84
2022/06/25 11:17:34;;;;;;;5.53;1.58;;;24.50;99.90;;;;;;5052640;28;20047;-84
2022/06/25 11:20:09;;;;;;;3.83;1.20;;;24.50;98.40;;;;;;5052113;28;20037;-84
2022/06/25 11:22:45;;;;;;;5.97;1.30;;;24.50;98.70;;;;;;5053071;28;20047;-84
2022/06/25 11:30:40;;;;;;;5.63;1.42;;;24.30;96.30;;;;;;5052194;28;20045;-85
2022/06/25 11:33:09;;;;;;;5.45;1.50;;;24.30;96.60;;;;;;5036077;28;20383;-85
2022/06/25 11:35:44;;;;;;;5.70;1.50;;;24.20;95.70;;;;;;5052174;28;20460;-85
2022/06/25 11:38:17;;;;;;;7.65;1.80;;;24.30;97.50;;;;;;5035214;28;20481;-84
2022/06/25 11:40:43;;;;;;;7.07;1.60;;;24.40;96.00;;;;;;5035966;28;20044;-84
2022/06/25 11:43:09;;;;;;;6.45;1.50;;;24.60;98.60;;;;;;5035167;28;20033;-85
2022/06/25 11:46:01;;;;;;;4.70;1.58;;;24.80;98.10;;;;;;5036074;28;20040;-84
2022/06/25 11:48:29;;;;;;;5.07;1.50;;;24.90;97.30;;;;;;5051495;28;20033;-85
2022/06/25 11:51:03;;;;;;;7.43;1.60;;;25.00;95.90;;;;;;5035961;28;20048;-85
2022/06/25 11:53:29;;;;;;;5.95;1.40;;;25.30;99.80;;;;;;5052418;28;20040;-85
2022/06/25 11:55:58;;;;;;;5.43;1.60;;;25.30;95.60;;;;;;5033141;28;20127;-85
2022/06/25 11:58:26;;;;;;;5.57;1.77;;;25.30;95.90;;;;;;5018318;28;20041;-85
2022/06/25 12:00:56;;;;;;;4.97;1.40;;;25.40;94.30;;;;;;5051911;28;20056;-85
2022/06/25 12:03:23;;;;;;;6.72;1.77;;;25.30;93.80;;;;;;5052547;28;20045;-84
2022/06/25 12:05:49;;;;;;;4.30;1.38;;;25.40;94.80;;;;;;5052172;28;20068;-84
2022/06/25 12:08:15;;;;;;;6.82;1.48;;;25.40;91.00;;;;;;5036137;28;20036;-85
2022/06/25 12:10:42;;;;;;;5.03;1.30;;;25.30;91.00;;;;;;5052225;28;20045;-85
2022/06/25 12:13:08;;;;;;;6.65;1.40;;;25.10;90.30;;;;;;5052876;28;20101;-85
2022/06/25 12:15:35;;;;;;;10.23;1.60;;;25.00;89.60;;;;;;5052135;28;20044;-85
2022/06/25 12:18:05;;;;;;;8.73;1.55;;;24.80;89.30;;;;;;5035116;28;20044;-85
2022/06/25 12:20:31;;;;;;;7.75;1.50;;;24.80;88.20;;;;;;5062397;28;20414;-84
2022/06/25 12:22:57;;;;;;;5.25;1.23;;;24.70;89.60;;;;;;5044962;28;20036;-85
2022/06/25 12:25:25;;;;;;;8.55;2.50;;;24.70;95.20;;;;;;5052224;28;20036;-85
2022/06/25 12:27:51;;;;;;;12.65;2.30;;;24.70;95.40;;;;;;5051141;28;20036;-85
2022/06/25 12:30:23;;;;;;;5.03;1.50;;;24.70;99.20;;;;;;5051469;28;20059;-85
2022/06/25 12:32:49;;;;;;;5.78;1.58;;;24.80;97.80;;;;;;5052340;28;20040;-85
2022/06/25 12:35:22;;;;;;;5.82;1.38;;;25.00;95.70;;;;;;5050719;28;20133;-85
2022/06/25 12:38:03;;;;;;;6.00;1.38;;;25.00;95.40;;;;;;5035132;28;20120;-85
2022/06/25 12:40:42;;;;;;;5.70;1.40;;;25.10;91.20;;;;;;5050907;28;20040;-84
2022/06/25 12:43:09;;;;;;;5.47;1.50;;;25.00;94.50;;;;;;5051194;28;20044;-85
2022/06/25 12:45:36;;;;;;;7.47;1.40;;;24.80;96.80;;;;;;5048348;28;20075;-85
2022/06/25 12:48:03;;;;;;;5.63;1.40;;;24.60;96.60;;;;;;5041645;28;20044;-85
2022/06/25 12:50:31;;;;;;;5.65;1.50;;;24.50;97.70;;;;;;5057455;28;20071;-85
2022/06/25 12:53:12;;;;;;;5.82;1.60;;;24.40;99.30;;;;;;5055679;28;20089;-85
2022/06/25 12:55:40;;;;;;;6.78;1.38;;;24.30;99.30;;;;;;5046499;28;20063;-84
2022/06/25 12:58:14;;;;;;;7.80;1.60;;;24.10;98.30;;;;;;5039758;28;20414;-84
2022/06/25 13:00:45;;;;;;;5.28;1.30;;;24.10;99.70;;;;;;5025741;28;20434;-85
2022/06/25 13:03:11;;;;;;;7.03;1.77;;;24.10;99.90;;;;;;5043124;28;20491;-85
2022/06/25 13:05:36;;;;;;;6.05;1.42;;;24.10;99.90;;;;;;5024857;28;20041;-85
2022/06/25 13:08:03;;;;;;;5.38;1.80;;;24.10;99.90;;;;;;5041360;28;20036;-84
2022/06/25 13:10:29;;;;;;;6.45;1.80;;;24.10;99.90;;;;;;5042357;28;20044;-84